Time;durP1;ratioP1;P1;durP2;ratioP2;P2;SDS_P1;SDS_P2;PMS_P1;PMS_P2;Temp;Humidity;BMP_temperature;BMP_pressure;BME280_temperature;BME280_humidity;BME280_pressure;Samples;Min_cycle;Max_cycle;Signal;HPM_P1;HPM_P2
2023/04/17 00:01:48;;;;;;;0.00;0.00;;;;;;;;;;6274930;22;20034;-94
2023/04/17 00:04:14;;;;;;;0.00;0.00;;;;;;;;;;6277338;22;19992;-93
2023/04/17 00:06:44;;;;;;;0.00;0.00;;;;;;;;;;6276800;22;20030;-93
2023/04/17 00:09:10;;;;;;;0.00;0.00;;;;;;;;;;6276896;22;20030;-92
2023/04/17 00:11:36;;;;;;;0.00;0.00;;;;;;;;;;6275713;22;20018;-93
2023/04/17 00:14:02;;;;;;;0.00;0.00;;;;;;;;;;6277123;22;19995;-94
2023/04/17 00:16:28;;;;;;;0.00;0.00;;;;;;;;;;6276796;22;19991;-95
2023/04/17 00:18:54;;;;;;;0.00;0.00;;;;;;;;;;6276325;22;19992;-96
2023/04/17 00:21:29;;;;;;;0.10;0.10;;;;;;;;;;6276011;22;19984;-94
2023/04/17 00:23:58;;;;;;;0.00;0.00;;;;;;;;;;6275153;22;20508;-95
2023/04/17 00:26:24;;;;;;;0.00;0.00;;;;;;;;;;6269683;22;20000;-93
2023/04/17 00:28:50;;;;;;;0.00;0.00;;;;;;;;;;6274707;22;19992;-94
2023/04/17 00:31:16;;;;;;;0.00;0.00;;;;;;;;;;6275135;22;19991;-94
2023/04/17 00:33:42;;;;;;;0.00;0.00;;;;;;;;;;6274832;22;20019;-93
2023/04/17 00:36:12;;;;;;;0.00;0.00;;;9.70;99.90;;;;;;6275767;22;20047;-94
2023/04/17 00:38:38;;;;;;;0.00;0.00;;;;;;;;;;6273825;22;20061;-95
2023/04/17 00:41:04;;;;;;;0.00;0.00;;;;;;;;;;6275377;22;19995;-94
2023/04/17 00:43:30;;;;;;;0.00;0.00;;;;;;;;;;6275973;22;20019;-93
2023/04/17 00:45:56;;;;;;;0.00;0.00;;;;;;;;;;6274763;22;20027;-92
2023/04/17 00:48:24;;;;;;;0.00;0.00;;;;;;;;;;6275628;22;20611;-93
2023/04/17 00:50:51;;;;;;;0.00;0.00;;;;;;;;;;6275127;22;20048;-94
2023/04/17 00:53:17;;;;;;;0.00;0.00;;;;;;;;;;6275513;22;20461;-95
2023/04/17 00:55:43;;;;;;;0.00;0.00;;;;;;;;;;6275917;22;19988;-94
2023/04/17 00:58:14;;;;;;;0.00;0.00;;;9.90;99.90;;;;;;6276336;22;20003;-92
2023/04/17 01:00:50;;;;;;;0.00;0.00;;;9.80;99.90;;;;;;6275658;22;20004;-93
2023/04/17 01:03:16;;;;;;;0.00;0.00;;;;;;;;;;6276530;22;19988;-94
2023/04/17 01:05:47;;;;;;;0.00;0.00;;;9.90;99.90;;;;;;6273710;22;20015;-94
2023/04/17 01:08:13;;;;;;;0.00;0.00;;;9.70;99.90;;;;;;6275477;22;20011;-94
2023/04/17 01:10:39;;;;;;;0.10;0.10;;;;;;;;;;6274535;22;20077;-92
2023/04/17 01:13:06;;;;;;;0.00;0.00;;;9.70;99.90;;;;;;6275425;22;19999;-93
2023/04/17 01:15:32;;;;;;;0.00;0.00;;;;;;;;;;6272763;22;20043;-95
2023/04/17 01:18:06;;;;;;;0.00;0.00;;;9.60;99.90;;;;;;6275308;22;20008;-95
2023/04/17 01:20:33;;;;;;;0.00;0.00;;;;;;;;;;6266673;22;20007;-93
2023/04/17 01:22:59;;;;;;;0.00;0.00;;;;;;;;;;6273565;22;20271;-95
2023/04/17 01:25:26;;;;;;;0.00;0.00;;;9.60;99.90;;;;;;6274554;22;20486;-94
2023/04/17 01:27:52;;;;;;;0.00;0.00;;;;;;;;;;6272539;22;20118;-94
2023/04/17 01:30:18;;;;;;;0.00;0.00;;;;;;;;;;6270959;22;20022;-95
2023/04/17 01:32:44;;;;;;;0.00;0.00;;;;;;;;;;6270043;22;20000;-94
2023/04/17 01:35:10;;;;;;;0.00;0.00;;;;;;;;;;6271608;22;20014;-94
2023/04/17 01:37:36;;;;;;;0.00;0.00;;;;;;;;;;6276051;22;20035;-94
2023/04/17 01:40:05;;;;;;;0.00;0.00;;;;;;;;;;6276724;22;19988;-95
2023/04/17 01:42:31;;;;;;;0.00;0.00;;;;;;;;;;6275465;22;20008;-94
2023/04/17 01:44:57;;;;;;;0.00;0.00;;;;;;;;;;6271931;22;20679;-95
2023/04/17 01:47:23;;;;;;;0.00;0.00;;;;;;;;;;6274780;22;20010;-94
2023/04/17 01:49:52;;;;;;;0.00;0.00;;;9.80;99.90;;;;;;6273439;22;20000;-95
2023/04/17 01:52:18;;;;;;;0.05;0.05;;;;;;;;;;6273914;22;20015;-92
2023/04/17 01:54:44;;;;;;;0.10;0.10;;;;;;;;;;6272980;22;20013;-93
2023/04/17 01:57:10;;;;;;;0.00;0.00;;;;;;;;;;6274834;22;20030;-94
2023/04/17 01:59:36;;;;;;;0.00;0.00;;;;;;;;;;6273784;22;20007;-94
2023/04/17 02:02:22;;;;;;;0.00;0.00;;;9.80;99.90;;;;;;6273635;22;20008;-94
2023/04/17 02:04:48;;;;;;;0.00;0.00;;;;;;;;;;6273101;22;20014;-93
2023/04/17 02:07:15;;;;;;;0.00;0.00;;;;;;;;;;6273097;22;20059;-92
2023/04/17 02:09:41;;;;;;;0.00;0.00;;;;;;;;;;6273439;22;20000;-92
2023/04/17 02:12:07;;;;;;;0.00;0.00;;;;;;;;;;6272469;22;20038;-92
2023/04/17 02:14:41;;;;;;;0.00;0.00;;;9.90;99.90;;;;;;6272140;22;19983;-92
2023/04/17 02:17:09;;;;;;;0.00;0.00;;;9.90;99.90;;;;;;6274202;22;20029;-92
2023/04/17 02:19:35;;;;;;;0.00;0.00;;;;;;;;;;6273661;22;20064;-94
2023/04/17 02:22:04;;;;;;;0.08;0.08;;;;;;;;;;6272690;22;20000;-93
2023/04/17 02:24:30;;;;;;;0.00;0.00;;;;;;;;;;6273666;22;20007;-93
2023/04/17 02:26:56;;;;;;;0.00;0.00;;;;;;;;;;6272978;22;20015;-95
2023/04/17 02:29:22;;;;;;;0.08;0.08;;;;;;;;;;6272700;22;20012;-93
2023/04/17 02:31:48;;;;;;;0.00;0.00;;;;;;;;;;6271964;22;20015;-95
2023/04/17 02:34:16;;;;;;;0.00;0.00;;;9.90;99.90;;;;;;6273903;22;20034;-93
2023/04/17 02:36:42;;;;;;;0.10;0.10;;;;;;;;;;6273720;22;20002;-94
2023/04/17 02:39:08;;;;;;;0.10;0.10;;;;;;;;;;6272371;22;20004;-94
2023/04/17 02:41:34;;;;;;;0.10;0.10;;;;;;;;;;6271083;22;19995;-94
2023/04/17 02:44:00;;;;;;;0.00;0.00;;;;;;;;;;6272385;22;20007;-93
2023/04/17 02:46:26;;;;;;;0.00;0.00;;;;;;;;;;6271787;22;20003;-94
2023/04/17 02:48:52;;;;;;;0.10;0.10;;;;;;;;;;6272181;22;20010;-93
2023/04/17 02:51:18;;;;;;;0.00;0.00;;;;;;;;;;6271760;22;20038;-95
2023/04/17 02:53:44;;;;;;;0.10;0.10;;;;;;;;;;6272254;22;20000;-94
2023/04/17 02:56:10;;;;;;;0.08;0.08;;;;;;;;;;6272621;22;20000;-93
2023/04/17 02:58:36;;;;;;;0.00;0.00;;;;;;;;;;6272931;22;20068;-93
2023/04/17 03:01:03;;;;;;;0.00;0.00;;;;;;;;;;6271842;22;20310;-94
2023/04/17 03:03:33;;;;;;;0.00;0.00;;;;;;;;;;6273601;22;20003;-95
2023/04/17 03:05:59;;;;;;;0.05;0.05;;;;;;;;;;6272448;22;20012;-92
2023/04/17 03:08:28;;;;;;;0.00;0.00;;;;;;;;;;6273700;22;19992;-93
2023/04/17 03:10:54;;;;;;;0.10;0.10;;;;;;;;;;6270667;22;20014;-94
2023/04/17 03:13:23;;;;;;;0.03;0.03;;;9.00;99.90;;;;;;6274677;22;19996;-93
2023/04/17 03:15:49;;;;;;;0.00;0.00;;;9.00;99.90;;;;;;6273042;22;20000;-93
2023/04/17 03:18:18;;;;;;;0.00;0.00;;;;;;;;;;6273311;22;19986;-93
2023/04/17 03:20:44;;;;;;;0.03;0.03;;;;;;;;;;6271782;22;19987;-92
2023/04/17 03:23:10;;;;;;;0.00;0.00;;;;;;;;;;6271032;22;20031;-93
2023/04/17 03:25:36;;;;;;;0.00;0.00;;;8.90;99.90;;;;;;6269728;22;20007;-91
2023/04/17 03:28:02;;;;;;;0.10;0.10;;;;;;;;;;6267809;22;19984;-94
2023/04/17 03:30:28;;;;;;;0.00;0.00;;;;;;;;;;6269287;22;20022;-95
2023/04/17 03:32:55;;;;;;;0.00;0.00;;;;;;;;;;6271986;22;19995;-93
2023/04/17 03:35:21;;;;;;;0.00;0.00;;;;;;;;;;6272910;22;20080;-93
2023/04/17 03:37:47;;;;;;;0.00;0.00;;;;;;;;;;6269564;22;20004;-93
2023/04/17 03:40:13;;;;;;;0.00;0.00;;;;;;;;;;6271357;22;20006;-95
2023/04/17 03:42:39;;;;;;;0.00;0.00;;;;;;;;;;6270918;22;19995;-93
2023/04/17 03:45:05;;;;;;;0.00;0.00;;;;;;;;;;6271147;22;19999;-93
2023/04/17 03:47:31;;;;;;;0.00;0.00;;;;;;;;;;6272917;22;20004;-92
2023/04/17 03:49:57;;;;;;;0.00;0.00;;;;;;;;;;6271713;22;20050;-93
2023/04/17 03:52:44;;;;;;;0.00;0.00;;;8.50;99.90;;;;;;6271690;22;20008;-93
2023/04/17 03:55:32;;;;;;;0.00;0.00;;;8.50;99.90;;;;;;6251622;22;20003;-94
2023/04/17 04:01:31;;;;;;;0.00;0.00;;;;;;;;;;6052801;23;20063;-92
2023/04/17 04:03:57;;;;;;;0.00;0.00;;;;;;;;;;6272569;22;20060;-91
2023/04/17 04:06:23;;;;;;;0.00;0.00;;;;;;;;;;6270965;22;20003;-95
2023/04/17 04:08:49;;;;;;;0.08;0.08;;;;;;;;;;6272645;22;20027;-92
2023/04/17 04:11:15;;;;;;;0.00;0.00;;;;;;;;;;6271487;22;20000;-93
2023/04/17 04:13:41;;;;;;;0.00;0.00;;;;;;;;;;6273125;22;20003;-95
2023/04/17 04:16:07;;;;;;;0.10;0.10;;;;;;;;;;6273470;22;20034;-93
2023/04/17 04:18:34;;;;;;;0.03;0.03;;;;;;;;;;6273755;22;20000;-93
2023/04/17 04:21:10;;;;;;;0.10;0.10;;;8.40;99.90;;;;;;6273133;22;20098;-94
2023/04/17 04:23:39;;;;;;;0.00;0.00;;;8.40;99.90;;;;;;6274639;22;20004;-93
2023/04/17 04:26:04;;;;;;;0.00;0.00;;;;;;;;;;6271883;22;20014;-92
2023/04/17 04:28:30;;;;;;;0.03;0.03;;;;;;;;;;6272111;22;20003;-94
2023/04/17 04:31:13;;;;;;;0.00;0.00;;;8.50;99.90;;;;;;6271704;22;19999;-92
2023/04/17 04:33:43;;;;;;;0.08;0.08;;;;;;;;;;6271853;22;20000;-93
2023/04/17 04:36:12;;;;;;;0.00;0.00;;;;;;;;;;6271331;22;19995;-94
2023/04/17 04:38:41;;;;;;;0.00;0.00;;;8.30;99.90;;;;;;6273499;22;20000;-92
2023/04/17 04:41:10;;;;;;;0.00;0.00;;;;;;;;;;6270509;22;20004;-93
2023/04/17 04:43:36;;;;;;;0.00;0.00;;;;;;;;;;6273199;22;19991;-93
2023/04/17 04:46:03;;;;;;;0.00;0.00;;;;;;;;;;6271930;22;20014;-93
2023/04/17 04:48:46;;;;;;;0.00;0.00;;;8.30;99.90;;;;;;6270976;22;20023;-94
2023/04/17 04:51:23;;;;;;;0.00;0.00;;;8.30;99.90;;;;;;6270916;22;19999;-93
2023/04/17 04:53:55;;;;;;;0.00;0.00;;;8.20;99.90;;;;;;6272427;22;20059;-92
2023/04/17 04:56:21;;;;;;;0.10;0.10;;;;;;;;;;6273949;22;19987;-93
2023/04/17 04:58:47;;;;;;;0.00;0.00;;;;;;;;;;6276894;22;20033;-94
2023/04/17 05:01:13;;;;;;;0.00;0.00;;;;;;;;;;6274778;22;19992;-96
2023/04/17 05:03:39;;;;;;;0.03;0.03;;;;;;;;;;6278268;22;20063;-94
2023/04/17 05:06:05;;;;;;;0.10;0.10;;;;;;;;;;6277987;22;20003;-96
2023/04/17 05:08:32;;;;;;;0.10;0.10;;;8.40;99.90;;;;;;6272410;22;20018;-94
2023/04/17 05:10:58;;;;;;;0.10;0.10;;;;;;;;;;6267015;22;20000;-92
2023/04/17 05:13:24;;;;;;;0.00;0.00;;;;;;;;;;6271525;22;20079;-93
2023/04/17 05:15:52;;;;;;;0.00;0.00;;;8.50;99.90;;;;;;6270087;22;20054;-93
2023/04/17 05:18:18;;;;;;;0.00;0.00;;;;;;;;;;6270143;22;20444;-94
2023/04/17 05:20:44;;;;;;;0.00;0.00;;;;;;;;;;6271141;22;20006;-92
2023/04/17 05:23:10;;;;;;;0.00;0.00;;;;;;;;;;6274346;22;20063;-94
2023/04/17 05:25:36;;;;;;;0.00;0.00;;;;;;;;;;6274024;22;20008;-94
2023/04/17 05:28:37;;;;;;;0.00;0.00;;;8.50;99.90;;;;;;6275377;22;19987;-94
2023/04/17 05:31:14;;;;;;;0.00;0.00;;;;;;;;;;6276195;22;20031;-93
2023/04/17 05:33:47;;;;;;;0.10;0.10;;;8.60;99.90;;;;;;6276151;22;20010;-94
2023/04/17 05:36:21;;;;;;;0.00;0.00;;;8.90;99.90;;;;;;6245872;23;19984;-93
2023/04/17 05:38:47;;;;;;;0.00;0.00;;;;;;;;;;6242560;23;20000;-92
2023/04/17 05:41:12;;;;;;;0.00;0.00;;;;;;;;;;6241530;23;20086;-92
2023/04/17 05:43:39;;;;;;;0.00;0.00;;;;;;;;;;6241896;23;20007;-92
2023/04/17 05:46:04;;;;;;;0.00;0.00;;;;;;;;;;6240477;23;20019;-93
2023/04/17 05:48:31;;;;;;;0.00;0.00;;;;;;;;;;6239992;23;20004;-93
2023/04/17 05:50:57;;;;;;;0.10;0.10;;;;;;;;;;6241439;22;20004;-92
2023/04/17 05:53:22;;;;;;;0.10;0.10;;;;;;;;;;6239614;23;20008;-92
2023/04/17 05:55:49;;;;;;;0.08;0.08;;;;;;;;;;6239351;23;20015;-93
2023/04/17 05:58:14;;;;;;;0.05;0.05;;;;;;;;;;6241571;23;20019;-93
2023/04/17 06:00:41;;;;;;;0.00;0.00;;;;;;;;;;6243111;22;20059;-93
2023/04/17 06:03:07;;;;;;;0.00;0.00;;;;;;;;;;6243680;23;20067;-93
2023/04/17 06:05:33;;;;;;;0.00;0.00;;;;;;;;;;6242761;23;20086;-93
2023/04/17 06:07:59;;;;;;;0.00;0.00;;;;;;;;;;6242325;22;20012;-94
2023/04/17 06:10:25;;;;;;;0.03;0.03;;;;;;;;;;6241726;23;20012;-93
2023/04/17 06:12:52;;;;;;;0.10;0.10;;;;;;;;;;6241669;23;20058;-93
2023/04/17 06:15:18;;;;;;;0.00;0.00;;;;;;;;;;6243763;23;20000;-93
2023/04/17 06:17:44;;;;;;;0.10;0.10;;;;;;;;;;6244260;23;19996;-94
2023/04/17 06:20:10;;;;;;;0.00;0.00;;;;;;;;;;6243548;23;20027;-95
2023/04/17 06:22:37;;;;;;;0.10;0.10;;;9.00;99.90;;;;;;6244400;23;19996;-93
2023/04/17 06:25:03;;;;;;;0.00;0.00;;;;;;;;;;6243654;23;20072;-93
2023/04/17 06:27:43;;;;;;;0.00;0.00;;;9.00;99.90;;;;;;6244191;23;20004;-93
2023/04/17 06:30:24;;;;;;;0.00;0.00;;;9.10;99.90;;;;;;6237260;23;20091;-92
2023/04/17 06:32:50;;;;;;;0.00;0.00;;;;;;;;;;6243930;23;20011;-93
2023/04/17 06:35:16;;;;;;;0.00;0.00;;;;;;;;;;6243411;23;20004;-93
2023/04/17 06:37:42;;;;;;;0.00;0.00;;;;;;;;;;6244241;23;19984;-95
2023/04/17 06:40:08;;;;;;;0.00;0.00;;;;;;;;;;6242828;23;20052;-95
2023/04/17 06:42:34;;;;;;;0.00;0.00;;;;;;;;;;6244103;22;19984;-92
2023/04/17 06:45:00;;;;;;;0.00;0.00;;;;;;;;;;6247059;22;20000;-95
2023/04/17 06:47:26;;;;;;;0.00;0.00;;;;;;;;;;6246380;22;19995;-93
2023/04/17 06:49:52;;;;;;;0.10;0.10;;;;;;;;;;6240885;23;20004;-92
2023/04/17 06:52:20;;;;;;;0.00;0.00;;;;;;;;;;6241688;23;20048;-93
2023/04/17 06:54:46;;;;;;;0.00;0.00;;;;;;;;;;6242336;23;20000;-92
2023/04/17 06:57:12;;;;;;;0.00;0.00;;;;;;;;;;6245052;23;20015;-95
2023/04/17 06:59:39;;;;;;;0.00;0.00;;;;;;;;;;6244441;22;20004;-93
2023/04/17 07:02:05;;;;;;;0.00;0.00;;;;;;;;;;6243618;23;20007;-93
2023/04/17 07:04:31;;;;;;;0.00;0.00;;;;;;;;;;6243754;23;20018;-93
2023/04/17 07:06:57;;;;;;;0.00;0.00;;;;;;;;;;6243362;23;20127;-94
2023/04/17 07:09:24;;;;;;;0.00;0.00;;;;;;;;;;6244886;23;20000;-94
2023/04/17 07:11:50;;;;;;;0.00;0.00;;;;;;;;;;6243868;22;20028;-93
2023/04/17 07:14:16;;;;;;;0.00;0.00;;;;;;;;;;6244420;23;19992;-93
2023/04/17 07:16:42;;;;;;;0.00;0.00;;;;;;;;;;6241591;23;20087;-95
2023/04/17 07:19:08;;;;;;;0.00;0.00;;;;;;;;;;6243006;23;19996;-93
2023/04/17 07:21:34;;;;;;;0.00;0.00;;;;;;;;;;6243638;23;20023;-93
2023/04/17 07:24:00;;;;;;;0.00;0.00;;;;;;;;;;6243583;23;20011;-93
2023/04/17 07:26:26;;;;;;;0.00;0.00;;;;;;;;;;6244027;23;20040;-94
2023/04/17 07:28:52;;;;;;;0.00;0.00;;;;;;;;;;6243147;22;19996;-94
2023/04/17 07:31:18;;;;;;;0.00;0.00;;;;;;;;;;6244255;23;19984;-94
2023/04/17 07:33:44;;;;;;;0.00;0.00;;;;;;;;;;6244745;23;20018;-93
2023/04/17 07:36:10;;;;;;;0.00;0.00;;;;;;;;;;6242515;23;20000;-92
2023/04/17 07:38:36;;;;;;;0.00;0.00;;;;;;;;;;6242360;23;20012;-94
2023/04/17 07:41:08;;;;;;;0.00;0.00;;;11.30;99.90;;;;;;6241835;22;19992;-93
2023/04/17 07:43:34;;;;;;;0.00;0.00;;;;;;;;;;6242824;23;20035;-95
2023/04/17 07:46:08;;;;;;;0.00;0.00;;;11.30;99.90;;;;;;6243132;23;19988;-93
2023/04/17 08:54:00;;;;;;;0.00;0.00;;;11.80;99.90;;;;;;6246214;22;20465;-90
2023/04/17 08:56:27;;;;;;;0.00;0.00;;;11.90;99.90;;;;;;6267970;22;20011;-91
2023/04/17 08:58:53;;;;;;;0.00;0.00;;;12.00;99.90;;;;;;6241631;23;20054;-90
2023/04/17 09:01:19;;;;;;;0.00;0.00;;;;;;;;;;6244416;22;20004;-91
2023/04/17 09:03:47;;;;;;;0.00;0.00;;;12.00;99.90;;;;;;6243380;23;20062;-91
2023/04/17 09:06:14;;;;;;;0.00;0.00;;;12.10;99.90;;;;;;6243847;23;20665;-89
2023/04/17 09:08:55;;;;;;;0.00;0.00;;;12.10;99.90;;;;;;6242620;23;20031;-90
2023/04/17 09:11:21;;;;;;;0.00;0.00;;;12.00;99.90;;;;;;6243903;22;20058;-89
2023/04/17 09:13:46;;;;;;;0.00;0.00;;;11.70;99.90;;;;;;6242589;23;20087;-92
2023/04/17 09:16:14;;;;;;;0.00;0.00;;;11.70;99.90;;;;;;6243169;23;20007;-91
2023/04/17 09:18:45;;;;;;;0.00;0.00;;;12.60;99.90;;;;;;6242101;23;20485;-90
2023/04/17 09:21:12;;;;;;;0.00;0.00;;;11.80;99.90;;;;;;6240420;22;20360;-91
2023/04/17 09:23:50;;;;;;;0.00;0.00;;;11.90;99.90;;;;;;6242831;22;20008;-91
2023/04/17 09:26:21;;;;;;;0.00;0.00;;;11.60;99.90;;;;;;6242215;23;20050;-92
2023/04/17 09:29:07;;;;;;;0.00;0.00;;;11.60;99.90;;;;;;6242533;23;20012;-90
2023/04/17 09:31:34;;;;;;;0.00;0.00;;;11.80;99.90;;;;;;6241300;23;20008;-91
2023/04/17 09:34:11;;;;;;;0.00;0.00;;;11.70;99.90;;;;;;6243187;23;20000;-90
2023/04/17 09:36:38;;;;;;;0.00;0.00;;;11.90;99.90;;;;;;6242308;22;20079;-90
2023/04/17 09:39:15;;;;;;;0.00;0.00;;;12.00;99.20;;;;;;6243152;23;20006;-90
2023/04/17 09:41:41;;;;;;;0.00;0.00;;;12.00;99.10;;;;;;6242278;23;20035;-90
2023/04/17 09:44:11;;;;;;;0.00;0.00;;;12.00;99.90;;;;;;6242668;23;20058;-90
2023/04/17 09:46:37;;;;;;;;;;;12.00;99.90;;;;;;6242054;23;20741;-90
2023/04/17 09:49:26;;;;;;;0.00;0.00;;;12.10;99.90;;;;;;6241565;23;19965;-91
2023/04/17 09:51:53;;;;;;;0.00;0.00;;;12.10;99.90;;;;;;6239795;22;20319;-90
2023/04/17 09:54:21;;;;;;;0.00;0.00;;;12.00;99.90;;;;;;6242925;23;20036;-91
2023/04/17 09:56:48;;;;;;;0.00;0.00;;;12.00;99.90;;;;;;6243741;23;20004;-90
2023/04/17 09:59:15;;;;;;;0.00;0.00;;;12.10;99.90;;;;;;6238243;23;20000;-90
2023/04/17 10:01:41;;;;;;;0.10;0.10;;;12.10;99.90;;;;;;6242064;23;20086;-90
2023/04/17 10:04:07;;;;;;;0.00;0.00;;;12.20;99.90;;;;;;6243177;23;20012;-91
2023/04/17 10:06:40;;;;;;;0.00;0.00;;;12.30;99.20;;;;;;6242941;23;20538;-91
2023/04/17 10:09:07;;;;;;;0.00;0.00;;;;;;;;;;6242834;23;20059;-90
2023/04/17 10:11:44;;;;;;;0.00;0.00;;;12.40;98.50;;;;;;6241384;22;20004;-91
2023/04/17 10:14:16;;;;;;;0.00;0.00;;;12.50;99.90;;;;;;6241591;23;20047;-91
2023/04/17 10:16:42;;;;;;;0.00;0.00;;;;;;;;;;6242653;23;20008;-90
2023/04/17 10:19:33;;;;;;;0.00;0.00;;;12.80;97.80;;;;;;6235711;23;20075;-90
2023/04/17 10:22:17;;;;;;;0.00;0.00;;;12.70;97.80;;;;;;6242718;22;20427;-89
2023/04/17 10:24:48;;;;;;;0.00;0.00;;;12.80;97.10;;;;;;6241587;23;20011;-89
2023/04/17 10:27:26;;;;;;;0.00;0.00;;;12.50;98.00;;;;;;6240529;22;20004;-91
2023/04/17 10:29:54;;;;;;;0.00;0.00;;;12.70;97.40;;;;;;6240819;23;20069;-91
2023/04/17 10:32:27;;;;;;;0.00;0.00;;;14.30;96.50;;;;;;6240630;22;20035;-89
2023/04/17 10:34:55;;;;;;;0.00;0.00;;;13.00;94.90;;;;;;6241702;23;20001;-90
2023/04/17 10:37:50;;;;;;;0.00;0.00;;;13.00;94.80;;;;;;6241284;23;20005;-90
2023/04/17 10:40:21;;;;;;;0.00;0.00;;;12.90;94.50;;;;;;6240456;23;20044;-89
2023/04/17 10:43:09;;;;;;;0.00;0.00;;;13.00;97.30;;;;;;6241928;23;20481;-89
2023/04/17 10:46:13;;;;;;;0.00;0.00;;;13.20;98.00;;;;;;6241422;23;20018;-90
2023/04/17 10:48:45;;;;;;;0.00;0.00;;;13.40;96.60;;;;;;6232040;23;20004;-91
2023/04/17 10:51:20;;;;;;;0.00;0.00;;;13.50;94.10;;;;;;6241735;22;20012;-90
2023/04/17 10:53:46;;;;;;;0.00;0.00;;;13.40;94.10;;;;;;6242493;23;20008;-88
2023/04/17 10:56:18;;;;;;;0.00;0.00;;;13.40;95.00;;;;;;6242102;23;20001;-90
2023/04/17 10:59:01;;;;;;;0.00;0.00;;;13.30;94.60;;;;;;6241528;23;20000;-89
2023/04/17 11:01:39;;;;;;;0.00;0.00;;;13.50;96.10;;;;;;6241920;23;20004;-89
2023/04/17 11:04:09;;;;;;;0.00;0.00;;;13.40;95.10;;;;;;6240932;23;20031;-89
2023/04/17 11:06:39;;;;;;;0.00;0.00;;;13.50;96.30;;;;;;6241071;23;20044;-87
2023/04/17 11:09:09;;;;;;;;;;;13.50;95.20;;;;;;6241650;23;20439;-90
2023/04/17 12:42:12;;;;;;;0.00;0.00;;;;;;;;;;6332653;22;20067;-96
2023/04/17 12:44:38;;;;;;;0.00;0.00;;;;;;;;;;6334048;22;19983;-96
2023/04/17 12:47:04;;;;;;;0.00;0.00;;;;;;;;;;6331797;22;19991;-95
2023/04/17 12:49:30;;;;;;;0.00;0.00;;;;;;;;;;6333650;22;20006;-96
2023/04/17 12:51:56;;;;;;;0.00;0.00;;;;;;;;;;6332023;22;20011;-96
2023/04/17 12:54:22;;;;;;;0.00;0.00;;;;;;;;;;6332964;22;20026;-95
2023/04/17 12:56:48;;;;;;;0.00;0.00;;;;;;;;;;6333015;22;19991;-96
2023/04/17 12:59:14;;;;;;;0.00;0.00;;;;;;;;;;6330353;22;20002;-95
2023/04/17 13:01:41;;;;;;;0.00;0.00;;;;;;;;;;6333112;22;20015;-96
2023/04/17 13:04:07;;;;;;;0.00;0.00;;;;;;;;;;6332969;22;19995;-95
2023/04/17 13:06:33;;;;;;;0.00;0.00;;;;;;;;;;6330691;22;20051;-95
2023/04/17 13:08:59;;;;;;;0.00;0.00;;;;;;;;;;6332607;22;20018;-95
2023/04/17 13:11:25;;;;;;;0.00;0.00;;;;;;;;;;6333230;22;20014;-95
2023/04/17 13:13:51;;;;;;;0.00;0.00;;;;;;;;;;6333661;22;20003;-95
2023/04/17 13:16:17;;;;;;;0.00;0.00;;;;;;;;;;6331761;22;20015;-95
2023/04/17 13:18:43;;;;;;;0.00;0.00;;;;;;;;;;6333750;22;19996;-95
2023/04/17 13:21:09;;;;;;;0.00;0.00;;;;;;;;;;6331839;22;19996;-94
2023/04/17 13:23:35;;;;;;;0.00;0.00;;;;;;;;;;6331635;22;20026;-95
2023/04/17 13:26:06;;;;;;;0.00;0.00;;;15.60;87.10;;;;;;6328482;22;19995;-95
2023/04/17 13:29:07;;;;;;;0.00;0.00;;;15.80;85.40;;;;;;6329357;22;19999;-94
